createdAt,value
2019-05-16T00:01:14.816Z,10.44
2019-05-16T00:03:40.901Z,10.44
2019-05-16T00:06:08.562Z,10.43
2019-05-16T00:08:34.652Z,10.43
2019-05-16T00:11:00.732Z,10.42
2019-05-16T00:13:28.016Z,10.42
2019-05-16T00:15:54.157Z,10.42
2019-05-16T00:18:20.311Z,10.42
2019-05-16T00:20:46.258Z,10.41
2019-05-16T00:23:12.272Z,10.41
2019-05-16T00:25:38.665Z,10.40
2019-05-16T00:28:05.191Z,10.39
2019-05-16T00:30:31.193Z,10.38
2019-05-16T00:32:58.814Z,10.35
2019-05-16T00:35:24.833Z,10.34
2019-05-16T00:37:50.827Z,10.31
2019-05-16T00:40:18.821Z,10.29
2019-05-16T00:42:44.855Z,10.26
2019-05-16T00:45:13.296Z,10.24
2019-05-16T00:47:39.181Z,10.21
2019-05-16T00:50:05.304Z,10.18
2019-05-16T00:52:31.295Z,10.17
2019-05-16T00:54:57.972Z,10.15
2019-05-16T00:57:24.599Z,10.13
2019-05-16T00:59:50.797Z,10.12
2019-05-16T01:02:18.156Z,10.10
2019-05-16T01:04:44.100Z,10.08
2019-05-16T01:07:10.083Z,10.06
2019-05-16T01:09:38.420Z,10.00
2019-05-16T01:12:03.953Z,10.04
2019-05-16T01:14:29.845Z,10.02
2019-05-16T01:16:58.000Z,10.02
2019-05-16T01:19:23.769Z,10.00
2019-05-16T01:21:49.751Z,10.00
2019-05-16T01:24:15.785Z,9.99
2019-05-16T01:26:41.735Z,9.97
2019-05-16T01:29:08.545Z,9.95
2019-05-16T01:31:37.848Z,9.94
2019-05-16T01:34:03.292Z,9.92
2019-05-16T01:36:36.791Z,9.90
2019-05-16T01:38:58.462Z,9.88
2019-05-16T01:41:24.463Z,9.88
2019-05-16T01:43:50.346Z,9.86
2019-05-16T01:46:18.103Z,9.84
2019-05-16T01:48:44.184Z,9.83
2019-05-16T01:51:10.183Z,9.82
2019-05-16T01:53:36.215Z,9.81
2019-05-16T01:56:02.187Z,9.79
2019-05-16T01:58:28.996Z,9.78
2019-05-16T02:01:05.471Z,9.76
2019-05-16T02:03:22.998Z,9.75
2019-05-16T02:05:48.894Z,9.75
2019-05-16T02:08:14.922Z,9.73
2019-05-16T02:10:40.907Z,9.74
2019-05-16T02:13:08.486Z,9.74
2019-05-16T02:15:34.712Z,9.73
2019-05-16T02:18:00.669Z,9.73
2019-05-16T02:20:28.251Z,9.74
2019-05-16T02:22:54.330Z,9.72
2019-05-16T02:25:20.316Z,9.70
2019-05-16T02:27:48.634Z,9.70
2019-05-16T02:30:14.209Z,9.69
2019-05-16T02:32:41.727Z,9.69
2019-05-16T02:35:11.222Z,9.69
2019-05-16T02:37:35.845Z,9.69
2019-05-16T02:40:02.823Z,9.70
2019-05-16T02:42:31.108Z,9.68
2019-05-16T02:44:56.652Z,9.69
2019-05-16T02:47:22.622Z,9.69
2019-05-16T02:49:50.466Z,9.68
2019-05-16T02:52:16.450Z,9.68
2019-05-16T02:54:42.309Z,9.68
2019-05-16T02:57:11.293Z,9.67
2019-05-16T02:59:36.149Z,9.68
2019-05-16T03:02:02.110Z,9.68
2019-05-16T03:04:30.560Z,9.69
2019-05-16T03:06:56.035Z,9.68
2019-05-16T03:09:22.108Z,9.69
2019-05-16T03:11:50.988Z,9.68
2019-05-16T03:14:21.206Z,9.70
2019-05-16T03:16:50.420Z,9.71
2019-05-16T03:19:17.046Z,9.72
2019-05-16T03:21:43.511Z,9.72
2019-05-16T03:24:11.282Z,9.73
2019-05-16T03:26:40.695Z,9.73
2019-05-16T03:29:05.209Z,9.75
2019-05-16T03:31:34.070Z,9.76
2019-05-16T03:34:06.541Z,9.79
2019-05-16T03:36:26.661Z,9.79
2019-05-16T03:38:52.506Z,9.79
2019-05-16T03:41:21.333Z,9.80
2019-05-16T03:43:46.256Z,9.80
2019-05-16T03:46:12.274Z,9.83
2019-05-16T03:48:40.739Z,9.86
2019-05-16T03:51:06.056Z,9.70
2019-05-16T03:53:32.076Z,9.91
2019-05-16T03:55:58.033Z,9.93
2019-05-16T03:58:24.094Z,9.95
2019-05-16T04:00:52.589Z,9.97
2019-05-16T04:03:21.320Z,10.00
2019-05-16T04:05:47.749Z,10.02
2019-05-16T04:08:19.441Z,10.05
2019-05-16T04:10:41.882Z,10.07
2019-05-16T04:13:07.919Z,10.11
2019-05-16T04:15:33.863Z,10.14
2019-05-16T04:18:01.584Z,10.17
2019-05-16T04:20:30.480Z,10.20
2019-05-16T04:22:55.586Z,10.23
2019-05-16T04:25:21.855Z,10.27
2019-05-16T04:27:50.095Z,10.30
2019-05-16T04:30:15.652Z,10.34
2019-05-16T04:32:42.165Z,10.37
2019-05-16T04:35:11.303Z,10.39
2019-05-16T04:37:36.040Z,10.26
2019-05-16T04:40:02.412Z,10.46
2019-05-16T04:42:31.053Z,10.50
2019-05-16T04:45:00.806Z,10.53
2019-05-16T04:47:23.731Z,10.58
2019-05-16T04:49:51.950Z,10.60
2019-05-16T04:52:17.435Z,10.62
2019-05-16T04:54:43.327Z,10.63
2019-05-16T04:57:11.952Z,10.66
2019-05-16T04:59:37.199Z,10.63
2019-05-16T05:02:03.192Z,10.75
2019-05-16T05:04:30.699Z,10.79
2019-05-16T05:06:56.704Z,10.83
2019-05-16T05:09:22.631Z,10.88
2019-05-16T05:11:51.702Z,10.92
2019-05-16T05:14:16.321Z,10.97
2019-05-16T05:16:42.205Z,11.01
2019-05-16T05:19:10.944Z,11.05
2019-05-16T05:21:36.030Z,11.09
2019-05-16T05:24:01.860Z,11.14
2019-05-16T05:26:30.422Z,11.18
2019-05-16T05:28:55.813Z,11.24
2019-05-16T05:31:24.776Z,11.28
2019-05-16T05:33:50.675Z,11.34
2019-05-16T05:36:16.646Z,11.38
2019-05-16T05:38:42.508Z,11.42
2019-05-16T05:41:10.566Z,11.47
2019-05-16T05:43:36.211Z,11.52
2019-05-16T05:46:02.089Z,11.56
2019-05-16T05:48:30.519Z,11.59
2019-05-16T05:50:55.837Z,11.62
2019-05-16T05:53:21.730Z,11.65
2019-05-16T05:55:50.673Z,11.70
2019-05-16T05:58:15.655Z,11.74
2019-05-16T06:00:41.929Z,11.78
2019-05-16T06:03:07.986Z,11.83
2019-05-16T06:05:33.970Z,11.87
2019-05-16T06:08:00.322Z,11.90
2019-05-16T06:10:26.347Z,11.93
2019-05-16T06:12:52.232Z,11.97
2019-05-16T06:15:20.246Z,12.00
2019-05-16T06:17:46.361Z,12.05
2019-05-16T06:20:14.531Z,12.10
2019-05-16T06:22:40.390Z,12.17
2019-05-16T06:25:06.557Z,12.21
2019-05-16T06:27:32.423Z,12.26
2019-05-16T06:30:00.488Z,12.33
2019-05-16T06:32:26.167Z,12.37
2019-05-16T06:34:52.074Z,12.45
2019-05-16T06:37:20.306Z,12.54
2019-05-16T06:39:45.720Z,12.61
2019-05-16T06:42:11.702Z,12.68
2019-05-16T06:44:39.959Z,12.76
2019-05-16T06:47:16.797Z,12.84
2019-05-16T06:49:33.188Z,12.90
2019-05-16T06:51:59.719Z,12.98
2019-05-16T06:54:25.823Z,13.05
2019-05-16T06:56:51.827Z,13.13
2019-05-16T06:59:17.718Z,13.21
2019-05-16T07:01:43.755Z,13.27
2019-05-16T07:04:10.423Z,13.32
2019-05-16T07:06:51.780Z,13.37
2019-05-16T07:09:05.439Z,13.42
2019-05-16T07:11:31.387Z,13.47
2019-05-16T07:13:57.239Z,13.53
2019-05-16T07:16:23.250Z,13.60
2019-05-16T07:18:50.570Z,13.66
2019-05-16T07:21:16.714Z,13.74
2019-05-16T07:23:42.987Z,13.80
2019-05-16T07:26:09.861Z,13.85
2019-05-16T07:28:36.267Z,13.89
2019-05-16T07:31:14.483Z,13.93
2019-05-16T07:33:31.157Z,14.00
2019-05-16T07:35:57.260Z,14.06
2019-05-16T07:38:23.342Z,14.14
2019-05-16T07:40:51.180Z,14.21
2019-05-16T07:43:17.133Z,14.28
2019-05-16T07:45:44.224Z,14.35
2019-05-16T07:48:10.750Z,14.40
2019-05-16T07:50:36.760Z,14.46
2019-05-16T07:53:02.919Z,14.52
2019-05-16T07:55:30.722Z,14.58
2019-05-16T07:57:56.694Z,14.63
2019-05-16T08:00:43.419Z,14.66
2019-05-16T08:02:50.727Z,14.71
2019-05-16T08:05:16.778Z,14.75
2019-05-16T08:07:42.864Z,14.80
2019-05-16T08:10:10.612Z,14.85
2019-05-16T08:12:36.915Z,14.90
2019-05-16T08:15:03.993Z,14.93
2019-05-16T08:17:31.449Z,14.97
2019-05-16T08:19:59.866Z,15.01
2019-05-16T08:22:25.623Z,15.06
2019-05-16T08:24:51.482Z,15.14
2019-05-16T08:27:20.588Z,15.21
2019-05-16T08:29:45.284Z,15.26
2019-05-16T08:32:11.682Z,15.31
2019-05-16T08:34:40.806Z,15.35
2019-05-16T08:37:05.397Z,15.43
2019-05-16T08:39:31.385Z,15.50
2019-05-16T08:42:07.030Z,15.56
2019-05-16T08:44:25.143Z,15.65
2019-05-16T08:46:57.031Z,15.73
2019-05-16T08:49:22.208Z,15.79
2019-05-16T08:51:46.582Z,15.86
2019-05-16T08:54:13.449Z,15.94
2019-05-16T08:56:45.557Z,16.02
2019-05-16T08:59:07.295Z,16.08
2019-05-16T09:01:35.115Z,16.14
2019-05-16T09:04:01.605Z,16.21
2019-05-16T09:06:31.654Z,16.27
2019-05-16T09:08:59.584Z,16.34
2019-05-16T09:11:35.756Z,16.41
2019-05-16T09:13:51.046Z,16.50
2019-05-16T09:16:18.307Z,16.56
2019-05-16T09:18:45.824Z,16.64
2019-05-16T09:21:12.005Z,16.74
2019-05-16T09:23:38.342Z,16.86
2019-05-16T09:26:07.187Z,16.95
2019-05-16T09:28:32.352Z,17.03
2019-05-16T09:30:58.328Z,17.11
2019-05-16T09:33:26.767Z,17.17
2019-05-16T09:35:52.175Z,17.24
2019-05-16T09:38:23.448Z,17.30
2019-05-16T09:40:47.818Z,17.33
2019-05-16T09:43:13.579Z,17.44
2019-05-16T09:45:39.578Z,17.66
2019-05-16T09:48:08.103Z,17.78
2019-05-16T09:50:33.762Z,17.72
2019-05-16T09:52:59.606Z,17.61
2019-05-16T09:55:26.874Z,17.48
2019-05-16T09:57:55.006Z,17.44
2019-05-16T10:00:22.626Z,17.47
2019-05-16T10:02:48.611Z,17.58
2019-05-16T10:05:16.919Z,17.74
2019-05-16T10:07:43.041Z,17.79
2019-05-16T10:10:09.195Z,17.83
2019-05-16T10:12:37.117Z,17.87
2019-05-16T10:15:04.047Z,17.87
2019-05-16T10:17:29.922Z,17.98
2019-05-16T10:19:56.532Z,17.96
2019-05-16T10:22:23.907Z,17.84
2019-05-16T10:24:49.856Z,17.72
2019-05-16T10:27:17.208Z,17.57
2019-05-16T10:29:43.331Z,17.44
2019-05-16T10:32:09.391Z,17.37
2019-05-16T10:34:37.087Z,17.29
2019-05-16T10:37:03.185Z,17.19
2019-05-16T10:39:29.412Z,17.06
2019-05-16T10:41:57.420Z,16.94
2019-05-16T10:44:23.254Z,16.92
2019-05-16T10:46:49.113Z,17.01
2019-05-16T10:49:25.538Z,17.17
2019-05-16T10:51:47.013Z,17.33
2019-05-16T10:54:14.325Z,17.49
2019-05-16T10:56:40.712Z,17.67
2019-05-16T10:59:46.754Z,17.70
2019-05-16T11:01:36.569Z,17.66
2019-05-16T11:04:02.307Z,17.61
2019-05-16T11:06:29.249Z,17.67
2019-05-16T11:08:57.128Z,17.76
2019-05-16T11:11:23.255Z,17.82
2019-05-16T11:13:51.069Z,17.81
2019-05-16T11:16:17.426Z,17.68
2019-05-16T11:18:43.579Z,17.65
2019-05-16T11:21:09.580Z,17.67
2019-05-16T11:23:36.745Z,17.72
2019-05-16T11:26:02.962Z,17.86
2019-05-16T11:28:28.876Z,18.00
2019-05-16T11:30:59.667Z,18.15
2019-05-16T11:33:22.633Z,18.31
2019-05-16T11:35:48.495Z,18.48
2019-05-16T11:38:17.549Z,18.53
2019-05-16T11:40:42.513Z,18.49
2019-05-16T11:43:17.423Z,18.52
2019-05-16T11:45:36.784Z,18.58
2019-05-16T11:48:03.035Z,18.58
2019-05-16T11:50:29.016Z,18.66
2019-05-16T11:52:56.925Z,18.72
2019-05-16T11:55:22.815Z,18.76
2019-05-16T11:57:48.781Z,18.86
2019-05-16T12:00:17.922Z,18.97
2019-05-16T12:02:43.539Z,19.06
2019-05-16T12:05:09.725Z,19.14
2019-05-16T12:07:43.742Z,19.17
2019-05-16T12:10:07.592Z,19.15
2019-05-16T12:12:33.610Z,19.10
2019-05-16T12:14:59.523Z,19.12
2019-05-16T12:17:27.967Z,19.14
2019-05-16T12:19:53.252Z,19.26
2019-05-16T12:22:19.203Z,19.30
2019-05-16T12:24:47.573Z,19.13
2019-05-16T12:27:12.884Z,18.97
2019-05-16T12:29:38.769Z,18.90
2019-05-16T12:32:07.212Z,18.81
2019-05-16T12:34:32.525Z,18.73
2019-05-16T12:36:58.519Z,18.63
2019-05-16T12:39:26.752Z,18.38
2019-05-16T12:41:52.279Z,18.46
2019-05-16T12:44:18.153Z,18.44
2019-05-16T12:46:44.229Z,18.40
2019-05-16T12:49:10.078Z,18.40
2019-05-16T12:51:36.993Z,18.42
2019-05-16T12:54:03.229Z,18.47
2019-05-16T12:56:29.194Z,18.56
2019-05-16T12:58:55.047Z,18.66
2019-05-16T13:01:21.592Z,18.67
2019-05-16T13:03:48.170Z,18.70
2019-05-16T13:06:14.097Z,18.75
2019-05-16T13:08:40.161Z,18.71
2019-05-16T13:11:07.181Z,18.68
2019-05-16T13:13:33.410Z,18.48
2019-05-16T13:15:59.529Z,18.57
2019-05-16T13:18:27.520Z,18.57
2019-05-16T13:20:53.027Z,18.58
2019-05-16T13:23:19.099Z,18.59
2019-05-16T13:25:47.852Z,18.55
2019-05-16T13:28:12.850Z,18.53
2019-05-16T13:30:38.938Z,18.46
2019-05-16T13:33:07.010Z,18.39
2019-05-16T13:35:32.584Z,18.32
2019-05-16T13:37:58.656Z,18.25
2019-05-16T13:40:24.504Z,18.14
2019-05-16T13:42:50.372Z,18.05
2019-05-16T13:45:17.857Z,18.02
2019-05-16T13:47:44.061Z,17.97
2019-05-16T13:50:12.200Z,17.89
2019-05-16T13:52:38.079Z,17.85
2019-05-16T13:55:06.896Z,17.86
2019-05-16T13:57:32.507Z,17.86
2019-05-16T13:59:59.597Z,17.91
2019-05-16T14:02:26.692Z,17.98
2019-05-16T14:04:52.626Z,18.02
2019-05-16T14:07:18.639Z,18.00
2019-05-16T14:09:46.962Z,17.93
2019-05-16T14:12:12.382Z,17.90
2019-05-16T14:14:42.366Z,17.89
2019-05-16T14:17:14.170Z,17.84
2019-05-16T14:19:33.853Z,17.79
2019-05-16T14:21:59.955Z,17.75
2019-05-16T14:24:28.207Z,17.68
2019-05-16T14:26:53.491Z,17.63
2019-05-16T14:29:19.650Z,17.60
2019-05-16T14:31:46.925Z,17.62
2019-05-16T14:34:13.040Z,17.62
2019-05-16T14:36:40.983Z,17.62
2019-05-16T14:39:06.952Z,17.69
2019-05-16T14:41:32.809Z,17.68
2019-05-16T14:43:59.000Z,17.68
2019-05-16T14:46:27.228Z,17.71
2019-05-16T14:48:52.592Z,17.72
2019-05-16T14:51:18.591Z,17.73
2019-05-16T14:53:46.904Z,17.77
2019-05-16T14:56:12.224Z,17.71
2019-05-16T14:58:38.401Z,17.68
2019-05-16T15:01:04.261Z,17.70
2019-05-16T15:03:30.148Z,17.79
2019-05-16T15:05:58.781Z,17.89
2019-05-16T15:08:23.826Z,18.02
2019-05-16T15:10:49.653Z,18.16
2019-05-16T15:13:17.454Z,18.29
2019-05-16T15:15:43.533Z,18.31
2019-05-16T15:18:09.543Z,18.35
2019-05-16T15:20:35.608Z,18.37
2019-05-16T15:23:01.529Z,18.39
2019-05-16T15:25:27.516Z,18.48
2019-05-16T15:27:53.633Z,18.58
2019-05-16T15:30:21.397Z,18.65
2019-05-16T15:32:48.435Z,18.78
2019-05-16T15:35:17.788Z,18.89
2019-05-16T15:37:43.093Z,18.98
2019-05-16T15:40:09.377Z,19.11
2019-05-16T15:42:37.352Z,19.16
2019-05-16T15:45:06.960Z,19.24
2019-05-16T15:47:32.791Z,19.34
2019-05-16T15:49:59.792Z,19.40
2019-05-16T15:52:27.461Z,19.41
2019-05-16T15:54:54.161Z,19.44
2019-05-16T15:57:20.214Z,19.42
2019-05-16T15:59:46.968Z,19.36
2019-05-16T16:02:12.982Z,19.33
2019-05-16T16:04:38.936Z,19.22
2019-05-16T16:07:07.613Z,19.10
2019-05-16T16:09:32.631Z,19.02
2019-05-16T16:12:01.031Z,18.95
2019-05-16T16:14:27.507Z,18.81
2019-05-16T16:16:53.601Z,18.67
2019-05-16T16:19:19.656Z,18.57
2019-05-16T16:21:47.294Z,18.45
2019-05-16T16:24:13.235Z,18.43
2019-05-16T16:26:39.194Z,18.44
2019-05-16T16:29:07.335Z,18.46
2019-05-16T16:31:32.961Z,18.34
2019-05-16T16:33:58.963Z,18.20
2019-05-16T16:36:27.187Z,18.11
2019-05-16T16:38:52.555Z,18.05
2019-05-16T16:41:18.511Z,17.98
2019-05-16T16:43:44.355Z,17.93
2019-05-16T16:46:13.528Z,17.91
2019-05-16T16:48:38.155Z,17.90
2019-05-16T16:51:06.364Z,17.88
2019-05-16T16:53:31.825Z,17.81
2019-05-16T16:55:58.089Z,17.76
2019-05-16T16:58:26.415Z,17.72
2019-05-16T17:00:51.853Z,17.71
2019-05-16T17:03:17.894Z,17.60
2019-05-16T17:05:43.780Z,17.51
2019-05-16T17:08:09.676Z,17.47
2019-05-16T17:10:37.973Z,17.44
2019-05-16T17:13:03.485Z,17.40
2019-05-16T17:15:29.474Z,17.38
2019-05-16T17:17:57.434Z,17.24
2019-05-16T17:20:23.206Z,17.21
2019-05-16T17:22:49.195Z,17.16
2019-05-16T17:25:15.237Z,17.11
2019-05-16T17:27:41.089Z,17.11
2019-05-16T17:30:16.996Z,17.07
2019-05-16T17:32:42.794Z,17.05
2019-05-16T17:35:08.761Z,17.07
2019-05-16T17:37:37.290Z,17.05
2019-05-16T17:40:03.075Z,17.10
2019-05-16T17:42:28.923Z,17.14
2019-05-16T17:44:56.567Z,17.16
2019-05-16T17:47:22.607Z,17.16
2019-05-16T17:49:48.465Z,17.13
2019-05-16T17:52:16.482Z,17.12
2019-05-16T17:54:42.361Z,17.13
2019-05-16T17:57:08.251Z,17.11
2019-05-16T17:59:34.264Z,17.07
2019-05-16T18:02:00.373Z,16.92
2019-05-16T18:04:28.174Z,17.01
2019-05-16T18:06:57.510Z,17.04
2019-05-16T18:09:22.021Z,17.07
2019-05-16T18:11:47.865Z,17.07
2019-05-16T18:14:13.846Z,17.06
2019-05-16T18:16:52.631Z,17.04
2019-05-16T18:19:07.912Z,17.02
2019-05-16T18:21:33.808Z,16.97
2019-05-16T18:23:59.803Z,16.89
2019-05-16T18:26:26.871Z,16.81
2019-05-16T18:28:52.853Z,16.75
2019-05-16T18:31:18.824Z,16.67
2019-05-16T18:33:44.688Z,16.62
2019-05-16T18:36:10.659Z,16.58
2019-05-16T18:38:37.289Z,16.57
2019-05-16T18:41:03.411Z,16.54
2019-05-16T18:43:29.446Z,16.51
2019-05-16T18:45:56.650Z,16.48
2019-05-16T18:48:22.766Z,16.44
2019-05-16T18:50:48.679Z,16.41
2019-05-16T18:53:14.514Z,16.33
2019-05-16T18:55:40.473Z,16.27
2019-05-16T18:58:08.592Z,16.22
2019-05-16T19:00:34.340Z,16.18
2019-05-16T19:03:00.280Z,16.14
2019-05-16T19:05:26.599Z,16.08
2019-05-16T19:07:52.628Z,16.05
2019-05-16T19:10:18.602Z,15.99
2019-05-16T19:12:44.558Z,15.94
2019-05-16T19:15:10.783Z,15.91
2019-05-16T19:17:36.785Z,15.87
2019-05-16T19:20:06.446Z,15.81
2019-05-16T19:22:31.662Z,15.76
2019-05-16T19:24:57.559Z,15.68
2019-05-16T19:27:23.490Z,15.57
2019-05-16T19:29:49.545Z,15.50
2019-05-16T19:32:17.204Z,15.44
2019-05-16T19:34:43.200Z,15.40
2019-05-16T19:37:09.223Z,15.35
2019-05-16T19:39:37.031Z,15.30
2019-05-16T19:42:03.056Z,15.26
2019-05-16T19:44:28.913Z,15.21
2019-05-16T19:46:57.174Z,15.16
2019-05-16T19:49:22.454Z,15.11
2019-05-16T19:51:49.102Z,15.04
2019-05-16T19:54:16.379Z,14.82
2019-05-16T19:56:42.343Z,14.94
2019-05-16T19:59:08.401Z,14.86
2019-05-16T20:01:36.750Z,14.77
2019-05-16T20:04:02.171Z,14.71
2019-05-16T20:06:28.183Z,14.67
2019-05-16T20:08:54.179Z,14.63
2019-05-16T20:11:20.037Z,14.61
2019-05-16T20:13:47.384Z,14.57
2019-05-16T20:16:13.446Z,14.52
2019-05-16T20:18:39.305Z,14.48
2019-05-16T20:21:05.545Z,14.45
2019-05-16T20:23:31.430Z,14.39
2019-05-16T20:25:57.417Z,14.34
2019-05-16T20:28:23.450Z,14.30
2019-05-16T20:30:49.330Z,14.26
2019-05-16T20:33:17.661Z,14.20
2019-05-16T20:35:43.128Z,14.15
2019-05-16T20:38:09.002Z,14.09
2019-05-16T20:40:37.216Z,14.02
2019-05-16T20:43:02.770Z,13.96
2019-05-16T20:45:28.750Z,13.90
2019-05-16T20:48:07.320Z,13.85
2019-05-16T20:50:22.655Z,13.80
2019-05-16T20:52:48.741Z,13.75
2019-05-16T20:55:14.760Z,13.69
2019-05-16T20:57:40.824Z,13.64
2019-05-16T21:00:06.998Z,13.59
2019-05-16T21:02:32.830Z,13.55
2019-05-16T21:04:58.872Z,13.51
2019-05-16T21:07:26.455Z,13.47
2019-05-16T21:09:52.433Z,13.43
2019-05-16T21:12:18.409Z,13.38
2019-05-16T21:14:44.379Z,13.31
2019-05-16T21:17:10.216Z,13.27
2019-05-16T21:19:38.983Z,13.23
2019-05-16T21:22:04.158Z,13.19
2019-05-16T21:24:30.117Z,13.14
2019-05-16T21:26:56.133Z,13.09
2019-05-16T21:29:22.081Z,13.04
2019-05-16T21:31:48.030Z,12.98
2019-05-16T21:34:16.554Z,12.92
2019-05-16T21:36:41.694Z,12.86
2019-05-16T21:39:08.602Z,12.81
2019-05-16T21:41:36.628Z,12.75
2019-05-16T21:44:02.619Z,12.71
2019-05-16T21:46:28.563Z,12.67
2019-05-16T21:48:56.594Z,12.63
2019-05-16T21:51:22.336Z,12.57
2019-05-16T21:53:48.175Z,12.52
2019-05-16T21:56:17.507Z,12.49
2019-05-16T21:58:42.868Z,12.43
2019-05-16T22:01:11.036Z,12.39
2019-05-16T22:03:37.101Z,12.36
2019-05-16T22:06:03.081Z,12.32
2019-05-16T22:08:28.916Z,12.28
2019-05-16T22:10:57.128Z,12.23
2019-05-16T22:13:22.671Z,12.19
2019-05-16T22:15:48.648Z,12.13
2019-05-16T22:18:16.614Z,12.07
2019-05-16T22:20:42.551Z,12.03
2019-05-16T22:23:08.528Z,11.97
2019-05-16T22:25:34.571Z,11.93
2019-05-16T22:28:00.650Z,11.88
2019-05-16T22:30:27.254Z,11.84
2019-05-16T22:32:53.496Z,11.80
2019-05-16T22:35:19.508Z,11.76
2019-05-16T22:37:53.875Z,11.72
2019-05-16T22:40:14.258Z,11.69
2019-05-16T22:42:40.139Z,11.66
2019-05-16T22:45:08.905Z,11.63
2019-05-16T22:47:37.184Z,11.58
2019-05-16T22:50:04.007Z,11.53
2019-05-16T22:52:29.988Z,11.49
2019-05-16T22:54:56.705Z,11.45
2019-05-16T22:57:22.622Z,11.41
2019-05-16T22:59:48.489Z,11.37
2019-05-16T23:02:16.684Z,11.34
2019-05-16T23:04:42.265Z,11.29
2019-05-16T23:07:08.617Z,11.25
2019-05-16T23:09:36.505Z,11.20
2019-05-16T23:12:02.571Z,11.15
2019-05-16T23:14:28.429Z,11.11
2019-05-16T23:16:54.392Z,11.07
2019-05-16T23:19:20.264Z,11.02
2019-05-16T23:21:47.510Z,10.99
2019-05-16T23:24:13.673Z,10.96
2019-05-16T23:26:39.838Z,10.94
2019-05-16T23:29:05.790Z,10.93
2019-05-16T23:31:31.724Z,10.90
2019-05-16T23:33:57.692Z,10.86
2019-05-16T23:36:23.554Z,10.83
2019-05-16T23:38:49.629Z,10.77
2019-05-16T23:41:17.284Z,10.73
2019-05-16T23:43:43.267Z,10.68
2019-05-16T23:46:09.394Z,10.62
2019-05-16T23:48:36.521Z,10.59
2019-05-16T23:51:02.639Z,10.56
2019-05-16T23:53:28.850Z,10.50
2019-05-16T23:55:56.750Z,10.47
2019-05-16T23:58:22.399Z,10.42
